sensor_id;sensor_type;location;lat;lon;timestamp;P1;durP1;ratioP1;P2;durP2;ratioP2
67979;SDS011;54760;47.490;19.030;2023-01-15T00:01:01;32.40;;;18.37;;
67979;SDS011;54760;47.490;19.030;2023-01-15T00:03:28;39.30;;;20.05;;
67979;SDS011;54760;47.490;19.030;2023-01-15T00:05:54;38.58;;;18.42;;
67979;SDS011;54760;47.490;19.030;2023-01-15T00:08:19;39.30;;;18.20;;
67979;SDS011;54760;47.490;19.030;2023-01-15T00:10:45;34.05;;;18.73;;
67979;SDS011;54760;47.490;19.030;2023-01-15T00:13:10;37.97;;;19.65;;
67979;SDS011;54760;47.490;19.030;2023-01-15T00:15:36;48.70;;;19.70;;
67979;SDS011;54760;47.490;19.030;2023-01-15T00:18:01;39.20;;;19.52;;
67979;SDS011;54760;47.490;19.030;2023-01-15T00:20:27;36.10;;;18.80;;
67979;SDS011;54760;47.490;19.030;2023-01-15T00:22:53;36.88;;;17.77;;
67979;SDS011;54760;47.490;19.030;2023-01-15T00:25:18;34.90;;;17.50;;
67979;SDS011;54760;47.490;19.030;2023-01-15T00:28:02;35.05;;;16.25;;
67979;SDS011;54760;47.490;19.030;2023-01-15T00:30:28;33.38;;;18.08;;
67979;SDS011;54760;47.490;19.030;2023-01-15T00:32:53;35.63;;;16.73;;
67979;SDS011;54760;47.490;19.030;2023-01-15T00:35:20;28.92;;;16.48;;
67979;SDS011;54760;47.490;19.030;2023-01-15T00:37:47;45.17;;;16.85;;
67979;SDS011;54760;47.490;19.030;2023-01-15T00:40:13;30.05;;;16.27;;
67979;SDS011;54760;47.490;19.030;2023-01-15T00:42:40;28.30;;;16.10;;
67979;SDS011;54760;47.490;19.030;2023-01-15T00:45:07;29.60;;;16.08;;
67979;SDS011;54760;47.490;19.030;2023-01-15T00:47:39;28.62;;;16.73;;
67979;SDS011;54760;47.490;19.030;2023-01-15T00:50:06;36.85;;;16.27;;
67979;SDS011;54760;47.490;19.030;2023-01-15T00:52:34;28.70;;;15.60;;
67979;SDS011;54760;47.490;19.030;2023-01-15T00:55:00;41.10;;;15.55;;
67979;SDS011;54760;47.490;19.030;2023-01-15T00:57:26;29.17;;;16.15;;
67979;SDS011;54760;47.490;19.030;2023-01-15T00:59:51;31.37;;;14.75;;
67979;SDS011;54760;47.490;19.030;2023-01-15T01:02:17;29.87;;;15.45;;
67979;SDS011;54760;47.490;19.030;2023-01-15T01:04:42;31.40;;;14.68;;
67979;SDS011;54760;47.490;19.030;2023-01-15T01:07:08;24.63;;;14.40;;
67979;SDS011;54760;47.490;19.030;2023-01-15T01:09:33;23.02;;;14.10;;
67979;SDS011;54760;47.490;19.030;2023-01-15T01:11:59;24.42;;;13.90;;
67979;SDS011;54760;47.490;19.030;2023-01-15T01:14:24;25.02;;;14.50;;
67979;SDS011;54760;47.490;19.030;2023-01-15T01:16:50;28.98;;;15.98;;
67979;SDS011;54760;47.490;19.030;2023-01-15T01:19:16;27.67;;;15.25;;
67979;SDS011;54760;47.490;19.030;2023-01-15T01:21:44;24.33;;;14.00;;
67979;SDS011;54760;47.490;19.030;2023-01-15T01:24:11;25.70;;;14.77;;
67979;SDS011;54760;47.490;19.030;2023-01-15T01:26:39;26.73;;;14.32;;
67979;SDS011;54760;47.490;19.030;2023-01-15T01:29:05;28.92;;;15.35;;
67979;SDS011;54760;47.490;19.030;2023-01-15T01:31:30;24.50;;;14.55;;
67979;SDS011;54760;47.490;19.030;2023-01-15T01:33:56;26.23;;;15.20;;
67979;SDS011;54760;47.490;19.030;2023-01-15T01:36:28;25.00;;;15.02;;
67979;SDS011;54760;47.490;19.030;2023-01-15T01:38:55;30.85;;;13.95;;
67979;SDS011;54760;47.490;19.030;2023-01-15T01:41:21;27.02;;;14.90;;
67979;SDS011;54760;47.490;19.030;2023-01-15T01:46:18;24.45;;;13.70;;
67979;SDS011;54760;47.490;19.030;2023-01-15T01:48:43;26.05;;;14.23;;
67979;SDS011;54760;47.490;19.030;2023-01-15T01:51:09;20.37;;;12.88;;
67979;SDS011;54760;47.490;19.030;2023-01-15T01:53:37;22.80;;;13.65;;
67979;SDS011;54760;47.490;19.030;2023-01-15T01:56:02;26.15;;;13.13;;
67979;SDS011;54760;47.490;19.030;2023-01-15T01:58:29;25.50;;;12.35;;
67979;SDS011;54760;47.490;19.030;2023-01-15T02:00:57;25.85;;;12.10;;
67979;SDS011;54760;47.490;19.030;2023-01-15T02:03:25;21.73;;;11.85;;
67979;SDS011;54760;47.490;19.030;2023-01-15T02:05:57;23.48;;;12.45;;
67979;SDS011;54760;47.490;19.030;2023-01-15T02:08:25;23.33;;;12.27;;
67979;SDS011;54760;47.490;19.030;2023-01-15T02:10:51;20.00;;;12.05;;
67979;SDS011;54760;47.490;19.030;2023-01-15T02:16:07;32.20;;;12.50;;
67979;SDS011;54760;47.490;19.030;2023-01-15T02:29:06;22.45;;;11.95;;
67979;SDS011;54760;47.490;19.030;2023-01-15T02:31:37;19.00;;;11.60;;
67979;SDS011;54760;47.490;19.030;2023-01-15T02:34:11;29.95;;;12.48;;
67979;SDS011;54760;47.490;19.030;2023-01-15T02:36:41;28.05;;;11.70;;
67979;SDS011;54760;47.490;19.030;2023-01-15T02:39:11;19.90;;;12.05;;
67979;SDS011;54760;47.490;19.030;2023-01-15T02:41:41;21.90;;;13.18;;
67979;SDS011;54760;47.490;19.030;2023-01-15T02:44:11;22.95;;;12.00;;
67979;SDS011;54760;47.490;19.030;2023-01-15T02:46:41;22.55;;;12.15;;
67979;SDS011;54760;47.490;19.030;2023-01-15T02:49:08;23.15;;;12.80;;
67979;SDS011;54760;47.490;19.030;2023-01-15T02:51:38;20.62;;;11.75;;
67979;SDS011;54760;47.490;19.030;2023-01-15T02:54:11;27.52;;;11.68;;
67979;SDS011;54760;47.490;19.030;2023-01-15T02:56:38;22.90;;;11.75;;
67979;SDS011;54760;47.490;19.030;2023-01-15T02:59:09;21.12;;;11.85;;
67979;SDS011;54760;47.490;19.030;2023-01-15T03:01:40;19.70;;;12.50;;
67979;SDS011;54760;47.490;19.030;2023-01-15T03:04:11;22.45;;;12.18;;
67979;SDS011;54760;47.490;19.030;2023-01-15T03:09:16;18.85;;;11.65;;
67979;SDS011;54760;47.490;19.030;2023-01-15T03:12:28;21.00;;;10.95;;
67979;SDS011;54760;47.490;19.030;2023-01-15T03:14:37;22.95;;;11.05;;
67979;SDS011;54760;47.490;19.030;2023-01-15T03:17:28;23.40;;;11.40;;
67979;SDS011;54760;47.490;19.030;2023-01-15T03:20:08;22.80;;;11.77;;
67979;SDS011;54760;47.490;19.030;2023-01-15T03:22:43;30.73;;;11.75;;
67979;SDS011;54760;47.490;19.030;2023-01-15T03:25:23;27.10;;;11.57;;
67979;SDS011;54760;47.490;19.030;2023-01-15T03:27:53;20.42;;;12.37;;
67979;SDS011;54760;47.490;19.030;2023-01-15T03:30:23;23.87;;;12.20;;
67979;SDS011;54760;47.490;19.030;2023-01-15T03:32:50;30.00;;;11.82;;
67979;SDS011;54760;47.490;19.030;2023-01-15T03:38:11;31.20;;;12.37;;
67979;SDS011;54760;47.490;19.030;2023-01-15T03:40:41;37.55;;;12.50;;
67979;SDS011;54760;47.490;19.030;2023-01-15T03:43:13;19.52;;;11.80;;
67979;SDS011;54760;47.490;19.030;2023-01-15T03:46:01;28.92;;;12.13;;
67979;SDS011;54760;47.490;19.030;2023-01-15T03:48:35;21.12;;;11.60;;
67979;SDS011;54760;47.490;19.030;2023-01-15T03:51:08;24.00;;;12.35;;
67979;SDS011;54760;47.490;19.030;2023-01-15T03:53:41;19.05;;;12.23;;
67979;SDS011;54760;47.490;19.030;2023-01-15T03:56:14;21.27;;;11.90;;
67979;SDS011;54760;47.490;19.030;2023-01-15T03:59:17;30.52;;;12.55;;
67979;SDS011;54760;47.490;19.030;2023-01-15T04:01:45;24.50;;;12.23;;
67979;SDS011;54760;47.490;19.030;2023-01-15T04:04:16;21.70;;;12.35;;
67979;SDS011;54760;47.490;19.030;2023-01-15T04:06:42;23.12;;;12.35;;
67979;SDS011;54760;47.490;19.030;2023-01-15T04:09:08;40.47;;;13.02;;
67979;SDS011;54760;47.490;19.030;2023-01-15T04:11:36;40.85;;;12.32;;
67979;SDS011;54760;47.490;19.030;2023-01-15T04:14:02;26.85;;;12.73;;
67979;SDS011;54760;47.490;19.030;2023-01-15T04:16:28;20.27;;;11.80;;
67979;SDS011;54760;47.490;19.030;2023-01-15T04:18:55;22.73;;;12.50;;
67979;SDS011;54760;47.490;19.030;2023-01-15T04:21:21;24.10;;;12.27;;
67979;SDS011;54760;47.490;19.030;2023-01-15T04:23:47;20.70;;;12.37;;
67979;SDS011;54760;47.490;19.030;2023-01-15T04:26:12;20.45;;;12.70;;
67979;SDS011;54760;47.490;19.030;2023-01-15T04:28:39;19.30;;;11.60;;
67979;SDS011;54760;47.490;19.030;2023-01-15T04:31:05;22.83;;;13.07;;
67979;SDS011;54760;47.490;19.030;2023-01-15T04:33:30;26.75;;;13.43;;
67979;SDS011;54760;47.490;19.030;2023-01-15T04:35:59;21.52;;;12.70;;
67979;SDS011;54760;47.490;19.030;2023-01-15T04:38:25;18.17;;;11.30;;
67979;SDS011;54760;47.490;19.030;2023-01-15T04:40:51;21.77;;;12.20;;
67979;SDS011;54760;47.490;19.030;2023-01-15T04:43:35;20.02;;;11.85;;
67979;SDS011;54760;47.490;19.030;2023-01-15T04:46:20;19.52;;;11.07;;
67979;SDS011;54760;47.490;19.030;2023-01-15T04:48:46;21.98;;;11.50;;
67979;SDS011;54760;47.490;19.030;2023-01-15T04:51:12;20.67;;;11.80;;
67979;SDS011;54760;47.490;19.030;2023-01-15T04:53:37;19.60;;;10.65;;
67979;SDS011;54760;47.490;19.030;2023-01-15T04:56:03;18.45;;;11.40;;
67979;SDS011;54760;47.490;19.030;2023-01-15T04:58:29;21.00;;;10.80;;
67979;SDS011;54760;47.490;19.030;2023-01-15T05:00:55;19.30;;;10.90;;
67979;SDS011;54760;47.490;19.030;2023-01-15T05:03:21;19.75;;;11.52;;
67979;SDS011;54760;47.490;19.030;2023-01-15T05:05:46;19.58;;;11.75;;
67979;SDS011;54760;47.490;19.030;2023-01-15T05:08:11;21.02;;;11.25;;
67979;SDS011;54760;47.490;19.030;2023-01-15T05:10:37;21.50;;;11.82;;
67979;SDS011;54760;47.490;19.030;2023-01-15T05:13:02;18.35;;;11.10;;
67979;SDS011;54760;47.490;19.030;2023-01-15T05:15:28;17.20;;;10.10;;
67979;SDS011;54760;47.490;19.030;2023-01-15T05:17:53;18.20;;;10.77;;
67979;SDS011;54760;47.490;19.030;2023-01-15T05:20:18;20.42;;;10.45;;
67979;SDS011;54760;47.490;19.030;2023-01-15T05:22:44;15.85;;;9.00;;
67979;SDS011;54760;47.490;19.030;2023-01-15T05:25:09;15.95;;;10.32;;
67979;SDS011;54760;47.490;19.030;2023-01-15T05:27:35;16.83;;;10.63;;
67979;SDS011;54760;47.490;19.030;2023-01-15T05:30:00;17.27;;;10.50;;
67979;SDS011;54760;47.490;19.030;2023-01-15T05:32:26;16.62;;;10.15;;
67979;SDS011;54760;47.490;19.030;2023-01-15T05:34:51;15.32;;;10.00;;
67979;SDS011;54760;47.490;19.030;2023-01-15T05:37:17;15.43;;;10.07;;
67979;SDS011;54760;47.490;19.030;2023-01-15T05:39:42;15.90;;;9.60;;
67979;SDS011;54760;47.490;19.030;2023-01-15T05:42:07;15.48;;;9.65;;
67979;SDS011;54760;47.490;19.030;2023-01-15T05:44:33;15.50;;;9.45;;
67979;SDS011;54760;47.490;19.030;2023-01-15T05:46:59;18.33;;;10.32;;
67979;SDS011;54760;47.490;19.030;2023-01-15T05:49:27;17.52;;;10.43;;
67979;SDS011;54760;47.490;19.030;2023-01-15T05:51:55;15.05;;;9.52;;
67979;SDS011;54760;47.490;19.030;2023-01-15T05:54:22;17.12;;;9.63;;
67979;SDS011;54760;47.490;19.030;2023-01-15T05:56:48;16.30;;;9.32;;
67979;SDS011;54760;47.490;19.030;2023-01-15T05:59:15;17.37;;;9.18;;
67979;SDS011;54760;47.490;19.030;2023-01-15T06:01:42;17.62;;;9.70;;
67979;SDS011;54760;47.490;19.030;2023-01-15T06:04:07;15.63;;;9.98;;
67979;SDS011;54760;47.490;19.030;2023-01-15T06:06:34;16.55;;;9.85;;
67979;SDS011;54760;47.490;19.030;2023-01-15T06:09:00;16.85;;;9.45;;
67979;SDS011;54760;47.490;19.030;2023-01-15T06:11:26;17.50;;;9.40;;
67979;SDS011;54760;47.490;19.030;2023-01-15T06:13:52;18.73;;;10.93;;
67979;SDS011;54760;47.490;19.030;2023-01-15T06:16:17;17.85;;;9.90;;
67979;SDS011;54760;47.490;19.030;2023-01-15T06:18:43;18.62;;;10.57;;
67979;SDS011;54760;47.490;19.030;2023-01-15T06:21:09;15.25;;;9.70;;
67979;SDS011;54760;47.490;19.030;2023-01-15T06:23:36;16.67;;;10.70;;
67979;SDS011;54760;47.490;19.030;2023-01-15T06:26:13;20.15;;;10.07;;
67979;SDS011;54760;47.490;19.030;2023-01-15T06:28:41;17.42;;;10.15;;
67979;SDS011;54760;47.490;19.030;2023-01-15T06:31:08;20.05;;;10.55;;
67979;SDS011;54760;47.490;19.030;2023-01-15T06:33:35;23.17;;;10.00;;
67979;SDS011;54760;47.490;19.030;2023-01-15T06:36:04;19.23;;;10.32;;
67979;SDS011;54760;47.490;19.030;2023-01-15T06:38:31;18.77;;;11.32;;
67979;SDS011;54760;47.490;19.030;2023-01-15T06:40:58;19.33;;;10.80;;
67979;SDS011;54760;47.490;19.030;2023-01-15T06:43:24;18.37;;;10.45;;
67979;SDS011;54760;47.490;19.030;2023-01-15T06:46:08;16.80;;;10.10;;
67979;SDS011;54760;47.490;19.030;2023-01-15T06:48:52;20.37;;;10.38;;
67979;SDS011;54760;47.490;19.030;2023-01-15T06:51:18;19.55;;;11.05;;
67979;SDS011;54760;47.490;19.030;2023-01-15T06:53:45;20.48;;;10.57;;
67979;SDS011;54760;47.490;19.030;2023-01-15T06:56:14;18.33;;;10.48;;
67979;SDS011;54760;47.490;19.030;2023-01-15T06:58:40;15.40;;;9.60;;
67979;SDS011;54760;47.490;19.030;2023-01-15T07:01:09;16.27;;;10.20;;
67979;SDS011;54760;47.490;19.030;2023-01-15T07:03:36;17.92;;;10.60;;
67979;SDS011;54760;47.490;19.030;2023-01-15T07:06:09;17.30;;;10.18;;
67979;SDS011;54760;47.490;19.030;2023-01-15T07:08:36;17.90;;;10.38;;
67979;SDS011;54760;47.490;19.030;2023-01-15T07:11:03;19.98;;;10.52;;
67979;SDS011;54760;47.490;19.030;2023-01-15T07:13:30;17.60;;;11.15;;
67979;SDS011;54760;47.490;19.030;2023-01-15T07:15:57;19.70;;;10.82;;
67979;SDS011;54760;47.490;19.030;2023-01-15T07:18:23;17.65;;;10.63;;
67979;SDS011;54760;47.490;19.030;2023-01-15T07:20:53;17.27;;;10.57;;
67979;SDS011;54760;47.490;19.030;2023-01-15T07:23:20;19.48;;;10.88;;
67979;SDS011;54760;47.490;19.030;2023-01-15T07:25:46;18.15;;;10.52;;
67979;SDS011;54760;47.490;19.030;2023-01-15T07:28:11;18.15;;;10.93;;
67979;SDS011;54760;47.490;19.030;2023-01-15T07:30:36;17.67;;;9.77;;
67979;SDS011;54760;47.490;19.030;2023-01-15T07:33:02;19.92;;;11.00;;
67979;SDS011;54760;47.490;19.030;2023-01-15T07:35:27;20.42;;;11.45;;
67979;SDS011;54760;47.490;19.030;2023-01-15T07:37:55;18.42;;;11.15;;
67979;SDS011;54760;47.490;19.030;2023-01-15T07:40:20;18.90;;;11.63;;
67979;SDS011;54760;47.490;19.030;2023-01-15T07:42:45;21.45;;;10.85;;
67979;SDS011;54760;47.490;19.030;2023-01-15T07:45:29;19.67;;;11.10;;
67979;SDS011;54760;47.490;19.030;2023-01-15T07:48:13;20.70;;;11.45;;
67979;SDS011;54760;47.490;19.030;2023-01-15T07:50:57;20.50;;;11.45;;
67979;SDS011;54760;47.490;19.030;2023-01-15T07:53:23;20.10;;;11.75;;
67979;SDS011;54760;47.490;19.030;2023-01-15T07:55:48;18.65;;;12.02;;
67979;SDS011;54760;47.490;19.030;2023-01-15T07:58:14;21.75;;;11.50;;
67979;SDS011;54760;47.490;19.030;2023-01-15T08:00:39;18.87;;;11.90;;
67979;SDS011;54760;47.490;19.030;2023-01-15T08:03:05;20.52;;;12.25;;
67979;SDS011;54760;47.490;19.030;2023-01-15T08:05:30;20.37;;;11.93;;
67979;SDS011;54760;47.490;19.030;2023-01-15T08:07:56;20.55;;;12.60;;
67979;SDS011;54760;47.490;19.030;2023-01-15T08:10:21;20.67;;;12.10;;
67979;SDS011;54760;47.490;19.030;2023-01-15T08:12:50;19.48;;;11.00;;
67979;SDS011;54760;47.490;19.030;2023-01-15T08:15:36;20.12;;;12.02;;
67979;SDS011;54760;47.490;19.030;2023-01-15T08:18:03;24.42;;;12.13;;
67979;SDS011;54760;47.490;19.030;2023-01-15T08:20:29;23.38;;;12.82;;
67979;SDS011;54760;47.490;19.030;2023-01-15T08:22:55;21.35;;;12.23;;
67979;SDS011;54760;47.490;19.030;2023-01-15T08:25:22;19.00;;;10.90;;
67979;SDS011;54760;47.490;19.030;2023-01-15T08:27:48;21.12;;;12.52;;
67979;SDS011;54760;47.490;19.030;2023-01-15T08:30:15;23.20;;;12.20;;
67979;SDS011;54760;47.490;19.030;2023-01-15T08:32:43;22.80;;;12.25;;
67979;SDS011;54760;47.490;19.030;2023-01-15T08:35:09;19.37;;;12.10;;
67979;SDS011;54760;47.490;19.030;2023-01-15T08:37:35;21.42;;;11.98;;
67979;SDS011;54760;47.490;19.030;2023-01-15T08:40:00;16.95;;;11.32;;
67979;SDS011;54760;47.490;19.030;2023-01-15T08:42:25;22.40;;;12.60;;
67979;SDS011;54760;47.490;19.030;2023-01-15T08:44:52;18.55;;;11.18;;
67979;SDS011;54760;47.490;19.030;2023-01-15T08:47:17;20.35;;;12.10;;
67979;SDS011;54760;47.490;19.030;2023-01-15T08:49:43;24.58;;;12.80;;
67979;SDS011;54760;47.490;19.030;2023-01-15T08:52:10;19.67;;;11.52;;
67979;SDS011;54760;47.490;19.030;2023-01-15T08:54:35;17.25;;;11.57;;
67979;SDS011;54760;47.490;19.030;2023-01-15T08:57:00;17.35;;;12.35;;
67979;SDS011;54760;47.490;19.030;2023-01-15T08:59:26;20.05;;;12.30;;
67979;SDS011;54760;47.490;19.030;2023-01-15T09:01:51;20.70;;;11.85;;
67979;SDS011;54760;47.490;19.030;2023-01-15T09:04:18;24.35;;;13.80;;
67979;SDS011;54760;47.490;19.030;2023-01-15T09:06:45;24.20;;;13.07;;
67979;SDS011;54760;47.490;19.030;2023-01-15T09:09:12;20.23;;;12.70;;
67979;SDS011;54760;47.490;19.030;2023-01-15T09:11:38;26.25;;;13.27;;
67979;SDS011;54760;47.490;19.030;2023-01-15T09:14:05;23.10;;;12.73;;
67979;SDS011;54760;47.490;19.030;2023-01-15T09:16:31;21.10;;;11.38;;
67979;SDS011;54760;47.490;19.030;2023-01-15T09:18:57;17.60;;;11.45;;
67979;SDS011;54760;47.490;19.030;2023-01-15T09:21:22;20.83;;;12.75;;
67979;SDS011;54760;47.490;19.030;2023-01-15T09:23:48;18.30;;;11.23;;
67979;SDS011;54760;47.490;19.030;2023-01-15T09:26:27;21.98;;;11.75;;
67979;SDS011;54760;47.490;19.030;2023-01-15T09:29:00;18.15;;;11.27;;
67979;SDS011;54760;47.490;19.030;2023-01-15T09:31:26;18.70;;;11.52;;
67979;SDS011;54760;47.490;19.030;2023-01-15T09:33:52;16.60;;;10.43;;
67979;SDS011;54760;47.490;19.030;2023-01-15T09:36:18;19.37;;;10.70;;
67979;SDS011;54760;47.490;19.030;2023-01-15T09:38:47;20.05;;;11.12;;
67979;SDS011;54760;47.490;19.030;2023-01-15T09:41:13;19.30;;;10.02;;
67979;SDS011;54760;47.490;19.030;2023-01-15T09:44:01;17.45;;;9.50;;
67979;SDS011;54760;47.490;19.030;2023-01-15T09:52:18;15.27;;;8.95;;
67979;SDS011;54760;47.490;19.030;2023-01-15T09:55:09;16.30;;;9.80;;
67979;SDS011;54760;47.490;19.030;2023-01-15T09:57:40;16.75;;;10.13;;
67979;SDS011;54760;47.490;19.030;2023-01-15T10:00:07;17.12;;;10.02;;
67979;SDS011;54760;47.490;19.030;2023-01-15T10:05:46;17.90;;;9.63;;
67979;SDS011;54760;47.490;19.030;2023-01-15T10:08:32;13.68;;;8.68;;
67979;SDS011;54760;47.490;19.030;2023-01-15T10:16:38;14.70;;;9.15;;
67979;SDS011;54760;47.490;19.030;2023-01-15T10:19:03;12.90;;;8.00;;
67979;SDS011;54760;47.490;19.030;2023-01-15T10:26:56;14.30;;;9.20;;
67979;SDS011;54760;47.490;19.030;2023-01-15T10:32:09;13.65;;;8.45;;
67979;SDS011;54760;47.490;19.030;2023-01-15T10:37:33;14.70;;;8.52;;
67979;SDS011;54760;47.490;19.030;2023-01-15T10:40:23;13.25;;;8.55;;
67979;SDS011;54760;47.490;19.030;2023-01-15T10:43:34;15.70;;;8.35;;
67979;SDS011;54760;47.490;19.030;2023-01-15T10:46:11;15.48;;;9.55;;
67979;SDS011;54760;47.490;19.030;2023-01-15T10:48:40;13.68;;;8.50;;
67979;SDS011;54760;47.490;19.030;2023-01-15T10:51:14;11.93;;;8.05;;
67979;SDS011;54760;47.490;19.030;2023-01-15T10:54:02;14.73;;;8.10;;
67979;SDS011;54760;47.490;19.030;2023-01-15T10:56:37;11.80;;;7.35;;
67979;SDS011;54760;47.490;19.030;2023-01-15T11:01:33;11.15;;;6.85;;
67979;SDS011;54760;47.490;19.030;2023-01-15T11:03:58;10.27;;;7.00;;
67979;SDS011;54760;47.490;19.030;2023-01-15T11:06:24;13.18;;;7.93;;
67979;SDS011;54760;47.490;19.030;2023-01-15T11:08:51;14.35;;;8.27;;
67979;SDS011;54760;47.490;19.030;2023-01-15T11:11:52;12.35;;;8.07;;
67979;SDS011;54760;47.490;19.030;2023-01-15T11:14:31;12.27;;;7.68;;
67979;SDS011;54760;47.490;19.030;2023-01-15T11:23:07;11.85;;;7.12;;
67979;SDS011;54760;47.490;19.030;2023-01-15T11:25:47;11.10;;;7.37;;
67979;SDS011;54760;47.490;19.030;2023-01-15T11:28:37;15.15;;;8.02;;
67979;SDS011;54760;47.490;19.030;2023-01-15T11:31:05;14.75;;;8.23;;
67979;SDS011;54760;47.490;19.030;2023-01-15T11:33:32;13.15;;;8.55;;
67979;SDS011;54760;47.490;19.030;2023-01-15T11:36:03;13.05;;;8.55;;
67979;SDS011;54760;47.490;19.030;2023-01-15T11:38:41;12.80;;;8.70;;
67979;SDS011;54760;47.490;19.030;2023-01-15T11:41:16;13.10;;;8.70;;
67979;SDS011;54760;47.490;19.030;2023-01-15T11:44:16;14.30;;;8.52;;
67979;SDS011;54760;47.490;19.030;2023-01-15T11:49:52;11.43;;;7.85;;
67979;SDS011;54760;47.490;19.030;2023-01-15T11:52:41;14.70;;;8.77;;
67979;SDS011;54760;47.490;19.030;2023-01-15T11:55:14;13.48;;;9.20;;
67979;SDS011;54760;47.490;19.030;2023-01-15T11:57:44;16.17;;;9.20;;
67979;SDS011;54760;47.490;19.030;2023-01-15T12:02:50;12.85;;;8.93;;
67979;SDS011;54760;47.490;19.030;2023-01-15T12:05:21;15.38;;;9.88;;
67979;SDS011;54760;47.490;19.030;2023-01-15T12:07:50;14.73;;;9.55;;
67979;SDS011;54760;47.490;19.030;2023-01-15T12:19:02;13.23;;;8.68;;
67979;SDS011;54760;47.490;19.030;2023-01-15T12:29:47;15.43;;;9.57;;
67979;SDS011;54760;47.490;19.030;2023-01-15T12:32:22;16.90;;;10.13;;
67979;SDS011;54760;47.490;19.030;2023-01-15T12:34:54;15.40;;;9.93;;
67979;SDS011;54760;47.490;19.030;2023-01-15T12:37:29;16.65;;;9.88;;
67979;SDS011;54760;47.490;19.030;2023-01-15T12:42:38;20.33;;;10.75;;
67979;SDS011;54760;47.490;19.030;2023-01-15T12:48:15;16.92;;;9.35;;
67979;SDS011;54760;47.490;19.030;2023-01-15T12:50:56;14.15;;;9.10;;
67979;SDS011;54760;47.490;19.030;2023-01-15T12:53:31;15.80;;;9.00;;
67979;SDS011;54760;47.490;19.030;2023-01-15T12:56:03;14.33;;;8.77;;
67979;SDS011;54760;47.490;19.030;2023-01-15T12:58:45;12.93;;;8.80;;
67979;SDS011;54760;47.490;19.030;2023-01-15T13:10:02;12.18;;;7.82;;
67979;SDS011;54760;47.490;19.030;2023-01-15T13:12:34;14.18;;;7.87;;
67979;SDS011;54760;47.490;19.030;2023-01-15T13:15:00;15.48;;;8.30;;
67979;SDS011;54760;47.490;19.030;2023-01-15T13:25:57;11.70;;;7.82;;
67979;SDS011;54760;47.490;19.030;2023-01-15T13:34:19;11.82;;;7.25;;
67979;SDS011;54760;47.490;19.030;2023-01-15T13:37:01;13.13;;;8.10;;
67979;SDS011;54760;47.490;19.030;2023-01-15T13:39:34;12.02;;;7.97;;
67979;SDS011;54760;47.490;19.030;2023-01-15T13:42:04;11.82;;;7.10;;
67979;SDS011;54760;47.490;19.030;2023-01-15T13:44:50;14.27;;;8.70;;
67979;SDS011;54760;47.490;19.030;2023-01-15T13:47:19;15.32;;;8.80;;
67979;SDS011;54760;47.490;19.030;2023-01-15T13:49:54;13.55;;;7.95;;
67979;SDS011;54760;47.490;19.030;2023-01-15T13:54:51;13.65;;;7.30;;
67979;SDS011;54760;47.490;19.030;2023-01-15T13:57:33;11.95;;;7.43;;
67979;SDS011;54760;47.490;19.030;2023-01-15T14:00:04;12.98;;;7.97;;
67979;SDS011;54760;47.490;19.030;2023-01-15T14:02:32;12.77;;;7.68;;
67979;SDS011;54760;47.490;19.030;2023-01-15T14:08:00;12.77;;;8.17;;
67979;SDS011;54760;47.490;19.030;2023-01-15T14:10:38;12.45;;;7.82;;
67979;SDS011;54760;47.490;19.030;2023-01-15T14:21:01;14.48;;;7.72;;
67979;SDS011;54760;47.490;19.030;2023-01-15T14:34:33;14.48;;;8.23;;
67979;SDS011;54760;47.490;19.030;2023-01-15T14:37:19;16.00;;;9.23;;
67979;SDS011;54760;47.490;19.030;2023-01-15T14:39:55;16.60;;;8.87;;
67979;SDS011;54760;47.490;19.030;2023-01-15T14:42:31;15.73;;;9.65;;
67979;SDS011;54760;47.490;19.030;2023-01-15T14:45:53;13.52;;;9.02;;
67979;SDS011;54760;47.490;19.030;2023-01-15T14:50:51;14.63;;;8.90;;
67979;SDS011;54760;47.490;19.030;2023-01-15T14:56:05;15.25;;;8.95;;
67979;SDS011;54760;47.490;19.030;2023-01-15T15:01:48;14.73;;;9.05;;
67979;SDS011;54760;47.490;19.030;2023-01-15T15:07:02;13.48;;;8.90;;
67979;SDS011;54760;47.490;19.030;2023-01-15T15:09:47;16.02;;;9.05;;
67979;SDS011;54760;47.490;19.030;2023-01-15T15:12:24;15.90;;;9.38;;
67979;SDS011;54760;47.490;19.030;2023-01-15T15:15:19;15.70;;;10.10;;
67979;SDS011;54760;47.490;19.030;2023-01-15T15:17:57;16.50;;;9.80;;
67979;SDS011;54760;47.490;19.030;2023-01-15T15:23:27;15.88;;;10.32;;
67979;SDS011;54760;47.490;19.030;2023-01-15T15:26:02;16.40;;;10.38;;
67979;SDS011;54760;47.490;19.030;2023-01-15T15:28:30;18.70;;;10.35;;
67979;SDS011;54760;47.490;19.030;2023-01-15T15:30:56;19.15;;;11.00;;
67979;SDS011;54760;47.490;19.030;2023-01-15T15:33:44;15.32;;;10.73;;
67979;SDS011;54760;47.490;19.030;2023-01-15T15:36:10;17.42;;;11.10;;
67979;SDS011;54760;47.490;19.030;2023-01-15T15:38:36;18.85;;;11.63;;
67979;SDS011;54760;47.490;19.030;2023-01-15T15:41:06;21.87;;;12.30;;
67979;SDS011;54760;47.490;19.030;2023-01-15T15:43:52;20.58;;;12.13;;
67979;SDS011;54760;47.490;19.030;2023-01-15T15:46:46;22.15;;;12.15;;
67979;SDS011;54760;47.490;19.030;2023-01-15T15:49:39;23.02;;;12.40;;
67979;SDS011;54760;47.490;19.030;2023-01-15T15:52:16;20.35;;;12.18;;
67979;SDS011;54760;47.490;19.030;2023-01-15T15:54:55;19.98;;;12.00;;
67979;SDS011;54760;47.490;19.030;2023-01-15T15:57:21;19.73;;;12.52;;
67979;SDS011;54760;47.490;19.030;2023-01-15T15:59:47;19.52;;;12.07;;
67979;SDS011;54760;47.490;19.030;2023-01-15T16:02:35;20.40;;;12.80;;
67979;SDS011;54760;47.490;19.030;2023-01-15T16:07:45;19.40;;;11.93;;
67979;SDS011;54760;47.490;19.030;2023-01-15T16:12:48;19.92;;;12.52;;
67979;SDS011;54760;47.490;19.030;2023-01-15T16:15:19;23.25;;;13.57;;
67979;SDS011;54760;47.490;19.030;2023-01-15T16:17:48;21.25;;;12.88;;
67979;SDS011;54760;47.490;19.030;2023-01-15T16:20:16;18.45;;;12.07;;
67979;SDS011;54760;47.490;19.030;2023-01-15T16:22:44;19.87;;;12.57;;
67979;SDS011;54760;47.490;19.030;2023-01-15T16:25:24;21.83;;;12.90;;
67979;SDS011;54760;47.490;19.030;2023-01-15T16:28:00;19.40;;;12.37;;
67979;SDS011;54760;47.490;19.030;2023-01-15T16:30:29;23.98;;;13.73;;
67979;SDS011;54760;47.490;19.030;2023-01-15T16:33:00;24.30;;;14.68;;
67979;SDS011;54760;47.490;19.030;2023-01-15T16:35:29;21.85;;;13.40;;
67979;SDS011;54760;47.490;19.030;2023-01-15T16:37:58;21.67;;;12.60;;
67979;SDS011;54760;47.490;19.030;2023-01-15T16:40:36;21.30;;;13.50;;
67979;SDS011;54760;47.490;19.030;2023-01-15T16:48:33;22.70;;;14.05;;
67979;SDS011;54760;47.490;19.030;2023-01-15T16:51:26;21.70;;;13.23;;
67979;SDS011;54760;47.490;19.030;2023-01-15T16:53:55;19.70;;;12.35;;
67979;SDS011;54760;47.490;19.030;2023-01-15T16:59:00;23.50;;;14.48;;
67979;SDS011;54760;47.490;19.030;2023-01-15T17:01:44;21.62;;;14.00;;
67979;SDS011;54760;47.490;19.030;2023-01-15T17:04:27;24.10;;;14.40;;
67979;SDS011;54760;47.490;19.030;2023-01-15T17:07:01;24.05;;;14.85;;
67979;SDS011;54760;47.490;19.030;2023-01-15T17:09:31;23.42;;;14.70;;
67979;SDS011;54760;47.490;19.030;2023-01-15T17:12:01;19.73;;;13.02;;